Time;durP1;ratioP1;P1;durP2;ratioP2;P2;SDS_P1;SDS_P2;PMS_P1;PMS_P2;Temp;Humidity;BMP_temperature;BMP_pressure;BME280_temperature;BME280_humidity;BME280_pressure;Samples;Min_cycle;Max_cycle;Signal;HPM_P1;HPM_P2
2022/12/29 00:00:12;;;;;;;18.52;1.38;;;;;;;2.70;76.80;100213.78;5062139;28;20505;-73
2022/12/29 00:02:38;;;;;;;9.10;1.52;;;;;;;2.69;76.46;100206.91;5066412;28;20057;-73
2022/12/29 00:05:06;;;;;;;8.15;1.00;;;;;;;2.70;76.32;100213.78;5064870;28;20048;-74
2022/12/29 00:07:35;;;;;;;2.67;1.15;;;;;;;2.70;76.54;100214.66;5058638;28;20041;-73
2022/12/29 00:10:02;;;;;;;7.72;0.90;;;;;;;2.69;76.59;100212.06;5062224;28;20049;-75
2022/12/29 00:15:36;;;;;;;3.55;0.75;;;;;;;2.71;76.83;100215.53;5064340;28;20479;-74
2022/12/29 00:18:00;;;;;;;3.00;1.17;;;;;;;2.70;76.55;100217.25;5062726;28;20064;-74
2022/12/29 00:36:56;;;;;;;2.78;0.60;;;;;;;2.68;76.44;100203.47;5059872;28;20521;-74
2022/12/29 00:44:54;;;;;;;2.75;0.65;;;;;;;2.69;76.55;100209.50;5061068;28;20059;-74
2022/12/29 00:47:21;;;;;;;9.45;0.75;;;;;;;2.68;76.56;100207.78;5060842;28;20413;-73
2022/12/29 00:49:47;;;;;;;1.60;0.77;;;;;;;2.68;76.09;100198.31;5064743;28;20128;-74
2022/12/29 00:52:14;;;;;;;3.60;1.00;;;;;;;2.56;75.87;100181.91;5063647;28;20471;-74
2022/12/29 00:54:45;;;;;;;1.05;0.50;;;;;;;2.69;76.52;100199.19;5063815;28;20376;-73
2022/12/29 00:57:13;;;;;;;4.22;0.63;;;;;;;2.69;76.32;100204.34;5057911;28;20132;-74
2022/12/29 00:59:41;;;;;;;2.83;0.60;;;;;;;2.69;76.45;100199.19;5059345;28;20402;-73
2022/12/29 01:02:09;;;;;;;1.75;0.80;;;;;;;2.69;75.83;100199.19;5059212;28;20045;-73
2022/12/29 01:04:36;;;;;;;4.90;0.70;;;;;;;2.67;75.92;100191.41;5062037;28;20052;-73
2022/12/29 01:07:03;;;;;;;1.10;0.55;;;;;;;2.67;76.49;100194.00;5063738;28;20059;-73
2022/12/29 01:12:15;;;;;;;3.80;0.65;;;;;;;2.67;76.22;100188.00;5065894;28;20521;-73
2022/12/29 01:14:42;;;;;;;1.40;0.70;;;;;;;2.67;76.31;100193.16;5064586;28;20041;-73
2022/12/29 01:17:09;;;;;;;6.75;0.80;;;;;;;2.67;76.22;100182.81;5064190;28;20052;-73
2022/12/29 01:19:36;;;;;;;2.00;1.00;;;;;;;2.67;76.28;100177.66;5060397;28;20041;-74
2022/12/29 01:22:03;;;;;;;4.43;0.60;;;;;;;2.68;75.75;100179.41;5059703;28;20051;-74
2022/12/29 01:24:30;;;;;;;4.97;0.70;;;;;;;2.67;76.09;100193.16;5062502;28;20049;-74
2022/12/29 01:26:57;;;;;;;5.47;0.50;;;;;;;2.67;76.09;100180.25;5059804;28;20045;-74
2022/12/29 01:29:25;;;;;;;2.47;0.45;;;;;;;2.66;75.60;100175.97;5063515;28;20082;-74
2022/12/29 01:31:52;;;;;;;12.95;0.77;;;;;;;2.67;76.35;100180.25;5059523;28;20398;-74
2022/12/29 01:34:19;;;;;;;7.22;1.00;;;;;;;2.65;75.68;100185.41;5060978;28;20513;-74
2022/12/29 01:36:46;;;;;;;3.83;0.55;;;;;;;2.65;76.15;100180.25;5061027;28;20060;-73
2022/12/29 01:39:13;;;;;;;11.13;0.93;;;;;;;2.64;75.77;100164.78;5060860;28;20822;-74
2022/12/29 01:41:40;;;;;;;8.57;0.70;;;;;;;2.65;76.21;100166.50;5062434;28;20036;-74
2022/12/29 01:44:40;;;;;;;13.15;0.75;;;;;;;2.65;76.11;100166.50;5054891;28;20052;-74
2022/12/29 01:47:09;;;;;;;0.98;0.52;;;;;;;2.64;76.32;100155.31;5063930;28;20049;-74
2022/12/29 01:49:36;;;;;;;1.80;0.50;;;;;;;2.63;75.76;100151.03;5061653;28;20158;-74
2022/12/29 01:52:08;;;;;;;7.45;0.70;;;;;;;2.63;75.81;100145.84;5065157;28;20044;-74
2022/12/29 01:54:41;;;;;;;4.03;0.73;;;;;;;2.64;75.74;100154.44;5063230;28;20049;-73
2022/12/29 01:57:11;;;;;;;2.58;0.50;;;;;;;2.63;76.30;100150.16;5061028;28;20053;-74
2022/12/29 01:59:42;;;;;;;6.70;0.70;;;;;;;2.64;75.88;100142.41;5060796;28;20052;-73
2022/12/29 02:02:11;;;;;;;2.85;0.80;;;;;;;2.64;75.82;100146.72;5058387;28;20454;-73
2022/12/29 02:04:44;;;;;;;2.25;0.77;;;;;;;2.64;75.74;100141.56;5060202;28;20499;-74
2022/12/29 02:07:16;;;;;;;2.40;0.70;;;;;;;2.64;75.85;100147.56;5063140;28;20049;-74
2022/12/29 02:09:44;;;;;;;1.88;0.90;;;;;;;2.62;76.25;100133.84;5059303;28;20051;-74
2022/12/29 02:12:11;;;;;;;9.65;0.82;;;;;;;2.65;75.72;100140.72;5060624;28;20055;-74
2022/12/29 02:14:38;;;;;;;4.15;0.50;;;;;;;2.65;76.16;100130.41;5062395;28;20073;-73
2022/12/29 02:17:18;;;;;;;2.13;0.80;;;;;;;2.65;76.28;100130.41;5062242;28;20040;-74
2022/12/29 02:20:26;;;;;;;1.63;0.60;;;;;;;2.65;76.02;100122.69;5062272;28;20053;-73
2022/12/29 02:23:12;;;;;;;1.55;0.45;;;;;;;2.64;75.59;100120.94;5062461;28;20051;-74
2022/12/29 02:26:05;;;;;;;9.18;0.55;;;;;;;2.65;75.70;100123.53;5060951;28;20064;-73
2022/12/29 02:29:08;;;;;;;1.23;0.50;;;;;;;2.65;75.65;100109.78;5060583;28;20521;-74
2022/12/29 02:31:45;;;;;;;1.67;0.55;;;;;;;2.65;76.18;100112.38;5056604;28;20518;-73
2022/12/29 02:34:22;;;;;;;1.65;0.47;;;;;;;2.65;76.14;100102.03;5060743;28;20046;-74
2022/12/29 02:37:00;;;;;;;1.10;0.40;;;;;;;2.64;76.08;100108.91;5061405;28;20048;-73
2022/12/29 02:39:38;;;;;;;4.30;0.40;;;;;;;2.65;75.81;100102.03;5062647;28;20045;-73
2022/12/29 02:42:14;;;;;;;2.65;0.30;;;;;;;2.65;76.31;100096.88;5055248;28;20127;-73
2022/12/29 02:44:53;;;;;;;1.23;0.45;;;;;;;2.65;75.69;100094.31;5063431;28;20060;-73
2022/12/29 02:47:30;;;;;;;0.63;0.30;;;;;;;2.65;76.25;100091.72;5064484;28;20049;-73
2022/12/29 02:50:02;;;;;;;1.05;0.30;;;;;;;2.65;76.54;100086.56;5060737;28;20053;-73
2022/12/29 02:52:35;;;;;;;1.10;0.30;;;;;;;2.67;76.51;100095.16;5061802;28;20060;-74
2022/12/29 02:55:00;;;;;;;1.10;0.50;;;;;;;2.67;76.01;100090.00;5055115;28;20049;-73
2022/12/29 02:57:33;;;;;;;0.80;0.40;;;;;;;2.67;76.52;100085.69;5060740;28;20067;-73
2022/12/29 03:00:07;;;;;;;1.60;0.20;;;;;;;2.68;76.38;100084.84;5061057;28;20114;-73
2022/12/29 03:03:10;;;;;;;1.38;0.25;;;;;;;2.70;76.18;100085.72;5058339;28;20049;-73
2022/12/29 03:06:02;;;;;;;0.50;0.28;;;;;;;2.72;76.15;100087.44;5056296;28;20053;-73
2022/12/29 03:08:38;;;;;;;1.60;0.40;;;;;;;2.73;76.55;100081.41;5054848;28;20122;-69
2022/12/29 03:12:07;;;;;;;0.55;0.30;;;;;;;2.73;76.44;100077.09;5061663;28;20041;-69
2022/12/29 03:16:50;;;;;;;1.38;0.40;;;;;;;2.76;77.41;100078.84;5058970;28;20052;-69
2022/12/29 03:19:23;;;;;;;1.00;0.35;;;;;;;2.79;77.40;100077.16;5060037;28;20040;-69
2022/12/29 03:24:44;;;;;;;2.78;0.30;;;;;;;2.82;77.71;100079.72;5067154;28;20059;-69
2022/12/29 03:27:17;;;;;;;0.57;0.30;;;;;;;2.85;77.63;100073.72;5065776;28;20055;-69
2022/12/29 03:29:54;;;;;;;1.92;0.30;;;;;;;2.89;77.90;100070.28;5068649;28;20052;-69
2022/12/29 03:32:24;;;;;;;3.83;0.30;;;;;;;2.91;78.02;100060.81;5064976;28;20040;-69
2022/12/29 03:34:52;;;;;;;2.67;0.98;;;;;;;2.95;77.30;100059.09;5066082;28;20055;-69
2022/12/29 03:37:27;;;;;;;1.60;0.20;;;;;;;2.98;78.02;100059.97;5067098;28;20047;-72
2022/12/29 03:39:54;;;;;;;0.75;0.40;;;;;;;3.00;77.80;100054.81;5064612;28;20040;-70
2022/12/29 03:42:24;;;;;;;4.72;0.60;;;;;;;3.03;78.22;100047.06;5064879;28;20044;-70
2022/12/29 03:44:55;;;;;;;0.85;0.45;;;;;;;3.05;78.06;100035.03;5064759;28;20036;-69
2022/12/29 03:47:22;;;;;;;2.88;0.40;;;;;;;3.07;78.03;100033.31;5064596;28;20086;-69
2022/12/29 03:49:50;;;;;;;1.73;0.43;;;;;;;3.10;78.13;100044.50;5066916;28;20487;-70
2022/12/29 03:52:17;;;;;;;3.55;0.40;;;;;;;3.11;77.97;100038.47;5065491;28;20457;-70
2022/12/29 03:54:46;;;;;;;1.63;0.32;;;;;;;3.15;77.83;100050.50;5065148;28;20135;-69
2022/12/29 03:57:12;;;;;;;0.68;0.30;;;;;;;3.16;78.22;100048.81;5064089;28;20040;-69
2022/12/29 03:59:39;;;;;;;0.60;0.40;;;;;;;3.21;77.81;100038.47;5065884;28;20050;-69
2022/12/29 04:02:06;;;;;;;1.65;0.65;;;;;;;3.23;78.15;100037.59;5059204;28;20128;-70
2022/12/29 04:04:33;;;;;;;1.10;0.40;;;;;;;3.25;77.88;100038.47;5063641;28;20046;-69
2022/12/29 04:07:00;;;;;;;0.93;0.43;;;;;;;3.27;78.04;100031.59;5061984;28;20045;-70
2022/12/29 04:09:27;;;;;;;5.18;0.45;;;;;;;3.28;78.29;100022.13;5063717;28;20059;-70
2022/12/29 04:11:55;;;;;;;0.60;0.35;;;;;;;3.30;78.22;100017.81;5064891;28;20659;-70
2022/12/29 04:14:22;;;;;;;1.83;0.40;;;;;;;3.32;78.36;100010.94;5061209;28;20486;-70
2022/12/29 04:16:49;;;;;;;5.18;0.50;;;;;;;3.34;78.19;100011.78;5057162;28;20128;-70
2022/12/29 04:19:16;;;;;;;4.13;0.40;;;;;;;3.36;77.98;100016.09;5062390;28;20044;-70
2022/12/29 04:21:43;;;;;;;1.60;0.30;;;;;;;3.36;78.32;100000.59;5062747;28;20050;-70
2022/12/29 04:24:10;;;;;;;1.75;0.55;;;;;;;3.38;78.22;100000.59;5061107;28;20506;-70
2022/12/29 04:26:37;;;;;;;1.80;0.30;;;;;;;3.40;77.97;99992.84;5064061;28;20070;-69
2022/12/29 04:29:05;;;;;;;0.90;0.30;;;;;;;3.42;78.24;99994.56;5064396;28;20041;-70
2022/12/29 04:31:32;;;;;;;0.82;0.43;;;;;;;3.45;78.46;99983.38;5062431;28;20045;-70
2022/12/29 04:33:59;;;;;;;1.67;0.40;;;;;;;3.45;78.16;99975.63;5064163;28;20045;-70
2022/12/29 04:36:26;;;;;;;2.53;0.40;;;;;;;3.47;78.38;99966.16;5062803;28;20398;-70
2022/12/29 04:38:53;;;;;;;0.70;0.40;;;;;;;3.49;78.24;99961.84;5060554;28;20045;-70
2022/12/29 04:41:20;;;;;;;2.47;0.30;;;;;;;3.51;78.45;99970.47;5062239;28;20041;-70
2022/12/29 04:43:47;;;;;;;2.67;0.43;;;;;;;3.52;78.38;99967.00;5065188;28;20061;-70
2022/12/29 04:46:15;;;;;;;1.80;0.43;;;;;;;3.55;78.88;99959.25;5064696;28;20493;-69
2022/12/29 04:48:42;;;;;;;0.90;0.30;;;;;;;3.55;78.37;99960.09;5063353;28;20418;-70
2022/12/29 04:51:09;;;;;;;1.08;0.40;;;;;;;3.58;78.68;99964.41;5060480;28;20044;-70
2022/12/29 04:53:36;;;;;;;0.60;0.30;;;;;;;3.60;78.61;99962.69;5063303;28;20067;-70
2022/12/29 04:56:03;;;;;;;2.00;0.32;;;;;;;3.62;78.38;99958.38;5066661;28;20434;-70
2022/12/29 04:58:31;;;;;;;2.25;0.40;;;;;;;3.60;78.46;99960.09;5061037;28;20102;-70
2022/12/29 05:00:57;;;;;;;2.60;0.40;;;;;;;3.65;78.38;99966.09;5063824;28;20044;-70
2022/12/29 05:03:26;;;;;;;2.53;0.55;;;;;;;3.68;78.36;99970.41;5059494;28;20388;-70
2022/12/29 05:05:55;;;;;;;1.50;0.40;;;;;;;3.69;78.28;99975.56;5063185;28;20044;-70
2022/12/29 05:08:21;;;;;;;2.20;0.40;;;;;;;3.71;78.63;99960.91;5056199;28;20643;-70
2022/12/29 05:10:50;;;;;;;0.80;0.40;;;;;;;3.72;78.43;99957.47;5059130;28;20041;-70
2022/12/29 05:13:17;;;;;;;2.03;0.30;;;;;;;3.74;78.52;99955.75;5062400;28;20049;-70
2022/12/29 05:15:48;;;;;;;1.17;0.40;;;;;;;3.75;78.38;99944.53;5062678;28;20048;-70
2022/12/29 05:18:15;;;;;;;0.43;0.30;;;;;;;3.77;78.33;99939.38;5059085;28;20110;-70
2022/12/29 05:20:44;;;;;;;0.30;0.20;;;;;;;3.78;78.31;99935.91;5062549;28;20128;-70
2022/12/29 05:23:11;;;;;;;0.60;0.60;;;;;;;3.79;78.35;99938.50;5060566;28;20059;-70
2022/12/29 05:25:38;;;;;;;2.75;0.30;;;;;;;3.81;78.46;99933.31;5066102;28;20053;-70
2022/12/29 05:28:05;;;;;;;1.85;0.30;;;;;;;3.82;78.65;99938.47;5057444;28;20136;-69
2022/12/29 05:30:32;;;;;;;2.05;0.38;;;;;;;3.83;78.44;99941.91;5060522;28;20051;-69
2022/12/29 05:32:59;;;;;;;0.95;0.30;;;;;;;3.84;78.36;99943.63;5064792;28;20049;-70
2022/12/29 05:35:26;;;;;;;2.42;0.20;;;;;;;3.87;78.31;99942.75;5062586;28;20055;-70
2022/12/29 05:37:54;;;;;;;0.50;0.35;;;;;;;3.88;78.39;99947.94;5062267;28;20128;-70
2022/12/29 05:40:21;;;;;;;0.82;0.30;;;;;;;3.89;78.35;99941.88;5061391;28;20043;-70
2022/12/29 05:42:47;;;;;;;0.28;0.20;;;;;;;3.91;78.37;99940.16;5061663;28;20055;-70
2022/12/29 05:45:14;;;;;;;2.45;0.30;;;;;;;3.92;78.45;99941.88;5058935;28;20049;-70
2022/12/29 05:47:41;;;;;;;2.53;0.30;;;;;;;3.92;78.11;99934.13;5062622;28;20064;-70
2022/12/29 05:50:09;;;;;;;1.83;0.20;;;;;;;3.95;78.26;99933.25;5062515;28;20048;-69
2022/12/29 05:52:36;;;;;;;1.38;0.20;;;;;;;3.94;78.57;99932.41;5061012;28;20058;-70
2022/12/29 05:55:05;;;;;;;3.28;0.20;;;;;;;3.95;78.17;99923.75;5062443;28;20047;-70
2022/12/29 05:57:32;;;;;;;0.47;0.10;;;;;;;3.97;78.39;99921.19;5059974;28;20094;-70
2022/12/29 05:59:58;;;;;;;1.02;0.13;;;;;;;3.96;78.03;99925.50;5060780;28;20069;-70
2022/12/29 06:02:25;;;;;;;1.05;0.10;;;;;;;3.97;78.30;99913.44;5058714;28;20048;-70
2022/12/29 06:04:52;;;;;;;1.33;0.25;;;;;;;3.99;78.29;99907.41;5060575;28;20423;-70
2022/12/29 06:07:19;;;;;;;0.25;0.10;;;;;;;3.99;78.46;99912.56;5061883;28;20131;-70
2022/12/29 06:09:46;;;;;;;2.10;0.20;;;;;;;3.97;78.25;99901.38;5057104;28;20045;-70
2022/12/29 06:12:14;;;;;;;1.30;0.40;;;;;;;4.01;78.26;99899.63;5061548;28;20045;-70
2022/12/29 06:14:41;;;;;;;1.08;0.20;;;;;;;4.00;78.24;99896.19;5055525;28;20499;-70
2022/12/29 06:17:08;;;;;;;0.40;0.10;;;;;;;4.02;78.30;99893.59;5064277;28;20055;-70
2022/12/29 06:19:35;;;;;;;0.50;0.10;;;;;;;4.02;78.32;99888.44;5060823;28;20051;-70
2022/12/29 06:22:02;;;;;;;1.30;0.20;;;;;;;4.03;78.09;99890.16;5060753;28;20127;-70
2022/12/29 06:24:29;;;;;;;0.43;0.10;;;;;;;4.04;78.22;99886.69;5061007;28;20041;-70
2022/12/29 06:26:56;;;;;;;1.08;0.17;;;;;;;4.04;78.50;99878.94;5061665;28;20143;-70
2022/12/29 06:29:24;;;;;;;1.40;0.40;;;;;;;4.05;78.39;99875.50;5061581;28;20037;-70
2022/12/29 06:31:55;;;;;;;2.40;0.30;;;;;;;3.94;78.08;99854.88;5060968;28;20044;-70
2022/12/29 06:34:22;;;;;;;1.73;0.30;;;;;;;4.06;78.19;99870.31;5065480;28;20049;-70
2022/12/29 06:36:49;;;;;;;0.70;0.30;;;;;;;4.07;78.40;99863.44;5058116;28;20410;-70
2022/12/29 06:39:16;;;;;;;0.10;0.10;;;;;;;4.08;78.49;99859.97;5064289;28;20048;-70
2022/12/29 06:41:43;;;;;;;1.23;0.20;;;;;;;4.10;78.43;99859.94;5060582;28;20041;-70
2022/12/29 06:44:10;;;;;;;2.00;0.20;;;;;;;4.09;78.64;99853.06;5061862;28;20136;-70
2022/12/29 06:46:38;;;;;;;2.55;0.40;;;;;;;4.09;78.67;99848.75;5058355;28;20045;-70
2022/12/29 06:49:05;;;;;;;2.30;0.50;;;;;;;4.10;78.41;99852.19;5058082;28;20053;-70
2022/12/29 06:51:32;;;;;;;5.22;0.40;;;;;;;4.11;78.42;99844.44;5063419;28;20051;-70
2022/12/29 06:53:59;;;;;;;0.73;0.32;;;;;;;4.12;78.60;99853.88;5059565;28;20045;-70
2022/12/29 06:56:25;;;;;;;4.65;0.45;;;;;;;4.11;78.69;99848.75;5057616;28;20136;-70
2022/12/29 06:58:52;;;;;;;0.90;0.30;;;;;;;4.14;78.92;99857.34;5059065;28;20047;-70
2022/12/29 07:01:19;;;;;;;2.05;0.40;;;;;;;4.09;78.55;99847.91;5059536;28;20098;-70
2022/12/29 07:03:47;;;;;;;2.85;0.70;;;;;;;4.18;78.84;99865.91;5059939;28;20063;-70
2022/12/29 07:06:14;;;;;;;2.92;1.02;;;;;;;4.17;78.50;99861.63;5061098;28;20062;-70
2022/12/29 07:08:41;;;;;;;3.03;0.70;;;;;;;4.17;78.64;99859.91;5061059;28;20060;-70
2022/12/29 07:11:08;;;;;;;2.80;0.40;;;;;;;4.22;78.66;99865.03;5059338;28;20048;-70
2022/12/29 07:13:35;;;;;;;3.60;0.65;;;;;;;4.21;78.92;99852.97;5059883;28;20196;-70
2022/12/29 07:16:06;;;;;;;5.47;0.60;;;;;;;4.23;78.49;99861.56;5063837;28;20049;-70
2022/12/29 07:18:33;;;;;;;3.30;0.80;;;;;;;4.23;78.83;99852.09;5059516;28;20045;-69
2022/12/29 07:21:01;;;;;;;2.08;0.50;;;;;;;4.23;78.82;99844.34;5060217;28;20055;-70
2022/12/29 07:23:28;;;;;;;4.07;0.93;;;;;;;4.24;78.75;99837.44;5061857;28;20130;-70
2022/12/29 07:26:00;;;;;;;4.45;0.70;;;;;;;4.26;78.87;99835.69;5059581;28;20084;-70
2022/12/29 07:28:27;;;;;;;5.20;0.93;;;;;;;4.25;78.47;99827.09;5059376;28;20473;-70
2022/12/29 07:30:54;;;;;;;4.05;1.42;;;;;;;4.28;78.44;99833.97;5061672;28;20045;-70
2022/12/29 07:33:21;;;;;;;3.95;2.00;;;;;;;4.28;78.68;99824.47;5058157;28;20048;-70
2022/12/29 07:35:48;;;;;;;1.73;0.82;;;;;;;4.29;78.79;99828.78;5062733;28;20450;-70
2022/12/29 07:38:16;;;;;;;3.83;0.95;;;;;;;4.32;78.42;99819.28;5059908;28;20051;-69
2022/12/29 07:40:43;;;;;;;1.90;1.17;;;;;;;4.28;78.75;99816.72;5058743;28;20498;-70
2022/12/29 07:43:10;;;;;;;2.55;0.90;;;;;;;4.32;78.76;99814.13;5065277;28;20119;-70
2022/12/29 07:45:37;;;;;;;7.35;1.40;;;;;;;4.32;78.47;99808.94;5062628;28;20037;-70
2022/12/29 07:48:05;;;;;;;3.85;0.80;;;;;;;4.34;78.63;99812.38;5064111;28;20049;-70
2022/12/29 07:50:32;;;;;;;8.50;1.10;;;;;;;4.34;78.69;99804.63;5056524;28;20045;-70
2022/12/29 07:52:59;;;;;;;3.90;0.98;;;;;;;4.34;78.78;99796.88;5058766;28;20127;-70
2022/12/29 07:55:27;;;;;;;5.78;1.83;;;;;;;4.35;78.73;99803.75;5060080;28;20124;-70
2022/12/29 07:57:54;;;;;;;4.50;1.05;;;;;;;4.35;78.71;99793.41;5057622;28;20060;-70
2022/12/29 08:00:21;;;;;;;6.38;1.02;;;;;;;4.36;78.60;99800.31;5060074;28;20129;-70
2022/12/29 08:02:48;;;;;;;3.53;1.20;;;;;;;4.37;78.82;99807.19;5061868;28;20052;-70
2022/12/29 08:05:15;;;;;;;3.35;1.08;;;;;;;4.36;78.72;99795.13;5054469;28;20051;-70
2022/12/29 08:07:44;;;;;;;2.92;0.88;;;;;;;4.34;78.68;99786.53;5059566;28;20048;-70
2022/12/29 08:10:11;;;;;;;5.65;1.48;;;;;;;4.38;78.50;99793.38;5060536;28;20479;-70
2022/12/29 08:12:41;;;;;;;1.77;0.93;;;;;;;4.35;78.56;99788.22;5064380;28;20087;-70
2022/12/29 08:15:10;;;;;;;8.48;1.30;;;;;;;4.40;78.78;99791.63;5060312;28;20041;-70
2022/12/29 08:17:37;;;;;;;4.45;1.25;;;;;;;4.39;79.01;99780.44;5067279;28;20406;-70
2022/12/29 08:20:05;;;;;;;4.93;1.20;;;;;;;4.40;78.90;99769.22;5069217;28;20418;-70
2022/12/29 08:22:31;;;;;;;2.45;1.38;;;;;;;4.41;78.76;99763.19;5064699;28;20043;-70
2022/12/29 08:24:58;;;;;;;3.42;0.73;;;;;;;4.40;78.92;99756.28;5060103;28;20063;-70
2022/12/29 08:27:26;;;;;;;3.05;1.02;;;;;;;4.40;78.73;99751.13;5062375;28;20044;-70
2022/12/29 08:29:54;;;;;;;7.47;1.50;;;;;;;4.40;78.96;99745.94;5061584;28;20047;-70
2022/12/29 08:32:21;;;;;;;5.07;1.10;;;;;;;4.40;78.67;99745.09;5066467;28;20045;-70
2022/12/29 08:34:48;;;;;;;4.63;0.90;;;;;;;4.40;78.76;99747.69;5062300;28;20063;-70
2022/12/29 08:37:15;;;;;;;4.32;1.00;;;;;;;4.40;78.46;99750.28;5065019;28;20410;-70
2022/12/29 08:39:42;;;;;;;4.30;1.30;;;;;;;4.41;78.78;99746.81;5059584;28;20052;-70
2022/12/29 08:42:08;;;;;;;6.53;1.00;;;;;;;4.40;78.69;99745.94;5059314;28;20052;-70
2022/12/29 08:44:35;;;;;;;5.75;1.20;;;;;;;4.40;78.83;99751.13;5060104;28;20131;-70
2022/12/29 08:47:03;;;;;;;5.07;1.13;;;;;;;4.36;78.96;99740.84;5063930;28;20124;-70
2022/12/29 08:49:30;;;;;;;3.53;1.27;;;;;;;4.39;78.60;99743.41;5064884;28;20040;-70
2022/12/29 08:51:57;;;;;;;2.83;0.88;;;;;;;4.42;78.77;99748.53;5058034;28;20049;-70
2022/12/29 08:54:24;;;;;;;4.93;1.20;;;;;;;4.43;78.96;99745.06;5065819;28;20047;-70
2022/12/29 08:56:51;;;;;;;6.35;0.90;;;;;;;4.43;79.09;99743.34;5064767;28;20045;-70
2022/12/29 08:59:18;;;;;;;6.32;0.98;;;;;;;4.45;78.88;99739.00;5060015;28;20604;-70
2022/12/29 09:01:45;;;;;;;3.55;0.88;;;;;;;4.47;79.05;99739.00;5058696;28;20490;-70
2022/12/29 09:04:13;;;;;;;3.80;0.73;;;;;;;4.46;78.97;99732.09;5063484;28;20041;-70
2022/12/29 09:06:40;;;;;;;6.10;0.40;;;;;;;4.48;78.79;99728.63;5063163;28;20045;-70
2022/12/29 09:09:07;;;;;;;5.88;1.20;;;;;;;4.49;78.99;99725.16;5063563;28;20048;-70
2022/12/29 09:11:34;;;;;;;3.75;0.60;;;;;;;4.52;79.10;99724.28;5064613;28;20048;-70
2022/12/29 09:14:01;;;;;;;3.08;0.57;;;;;;;4.51;79.06;99707.91;5063840;28;20045;-70
2022/12/29 09:16:27;;;;;;;4.07;0.50;;;;;;;4.53;78.85;99707.91;5064181;28;20442;-70
2022/12/29 09:18:54;;;;;;;2.33;0.50;;;;;;;4.55;79.13;99707.88;5065108;28;20437;-70
2022/12/29 09:21:22;;;;;;;5.28;0.40;;;;;;;4.54;78.93;99694.09;5062446;28;20479;-70
2022/12/29 09:23:49;;;;;;;1.63;0.30;;;;;;;4.56;79.16;99694.94;5063486;28;20048;-70
2022/12/29 09:26:16;;;;;;;7.78;0.45;;;;;;;4.57;79.04;99686.28;5063447;28;20131;-70
2022/12/29 09:28:44;;;;;;;0.60;0.20;;;;;;;4.56;78.91;99676.84;5063968;28;20056;-70
2022/12/29 09:31:11;;;;;;;2.45;0.30;;;;;;;4.58;78.97;99672.50;5062936;28;20045;-70
2022/12/29 09:33:38;;;;;;;2.33;0.20;;;;;;;4.58;78.77;99677.69;5062614;28;20382;-70
2022/12/29 09:36:05;;;;;;;0.43;0.20;;;;;;;4.60;79.15;99672.47;5060250;28;20117;-70
2022/12/29 09:38:33;;;;;;;0.65;0.15;;;;;;;4.60;79.03;99669.88;5064617;28;20045;-70
2022/12/29 09:41:11;;;;;;;0.50;0.10;;;;;;;4.63;78.94;99664.69;5059473;28;20051;-70
2022/12/29 09:44:00;;;;;;;0.20;0.10;;;;;;;4.64;78.95;99650.84;5062571;28;20136;-70
2022/12/29 09:46:28;;;;;;;1.75;0.10;;;;;;;4.65;78.84;99652.59;5060952;28;20864;-70
2022/12/29 09:49:16;;;;;;;0.35;0.10;;;;;;;4.68;78.59;99642.19;5061620;28;20052;-70
2022/12/29 09:51:47;;;;;;;0.28;0.10;;;;;;;4.68;79.08;99634.44;5065076;28;20051;-70
2022/12/29 09:54:41;;;;;;;1.00;0.20;;;;;;;4.70;79.16;99625.78;5062465;28;20403;-70
2022/12/29 09:57:17;;;;;;;1.48;0.43;;;;;;;4.71;79.41;99624.91;5061982;28;20045;-70
2022/12/29 09:59:47;;;;;;;1.35;0.17;;;;;;;4.73;79.05;99615.41;5058872;28;20132;-70
2022/12/29 10:02:28;;;;;;;2.88;0.28;;;;;;;4.76;79.01;99624.00;5061280;28;20036;-70
2022/12/29 10:04:55;;;;;;;1.33;0.30;;;;;;;4.77;79.22;99615.34;5063666;28;20040;-70
2022/12/29 10:07:33;;;;;;;2.95;0.20;;;;;;;4.79;79.25;99606.69;5061971;28;20045;-70
2022/12/29 10:10:13;;;;;;;3.10;0.20;;;;;;;4.81;79.26;99601.50;5058113;28;20052;-70
2022/12/29 10:13:01;;;;;;;2.80;0.60;;;;;;;4.82;79.20;99598.03;5066221;28;20063;-70
2022/12/29 10:15:41;;;;;;;0.88;0.20;;;;;;;4.83;79.23;99594.56;5063990;28;20521;-70
2022/12/29 10:18:25;;;;;;;3.47;0.30;;;;;;;4.86;79.21;99584.16;5060160;28;20124;-70
2022/12/29 10:20:55;;;;;;;1.30;0.20;;;;;;;4.85;79.21;99591.09;5060439;28;20050;-70
2022/12/29 10:23:29;;;;;;;3.95;0.20;;;;;;;4.88;79.58;99588.44;5057719;28;20045;-70
2022/12/29 10:25:59;;;;;;;2.15;0.20;;;;;;;4.90;79.22;99586.72;5062808;28;20128;-70
2022/12/29 10:28:41;;;;;;;0.50;0.10;;;;;;;4.92;79.35;99578.91;5062561;28;20033;-70
2022/12/29 10:31:14;;;;;;;1.45;0.60;;;;;;;4.86;79.28;99564.31;5062390;28;20052;-70
2022/12/29 10:33:44;;;;;;;0.70;0.20;;;;;;;4.94;79.18;99569.41;5063347;28;20418;-70
2022/12/29 10:36:17;;;;;;;0.75;0.20;;;;;;;4.96;79.21;99567.66;5061445;28;20055;-69
2022/12/29 10:38:52;;;;;;;0.30;0.17;;;;;;;4.98;79.27;99563.31;5060834;28;20124;-71
2022/12/29 10:41:24;;;;;;;4.30;0.50;;;;;;;4.96;79.39;99541.78;5060709;28;20045;-71
2022/12/29 10:43:54;;;;;;;1.45;0.20;;;;;;;5.01;79.26;99552.03;5058963;28;20047;-70
2022/12/29 10:46:24;;;;;;;1.55;0.20;;;;;;;5.02;79.54;99543.41;5060052;28;20056;-70
2022/12/29 10:48:51;;;;;;;1.65;0.20;;;;;;;5.04;79.33;99533.88;5062018;28;20430;-70
2022/12/29 10:51:23;;;;;;;0.20;0.15;;;;;;;5.05;79.36;99528.69;5063806;28;20044;-70
2022/12/29 10:53:54;;;;;;;0.55;0.10;;;;;;;5.07;79.46;99526.06;5061556;28;20048;-70
2022/12/29 10:56:33;;;;;;;1.60;0.10;;;;;;;5.08;79.13;99528.63;5061455;28;20075;-70
2022/12/29 10:59:09;;;;;;;1.38;0.10;;;;;;;5.08;79.48;99513.09;5057961;28;20062;-70
2022/12/29 11:01:43;;;;;;;1.20;0.17;;;;;;;5.08;79.30;99507.06;5060367;28;20049;-70
2022/12/29 11:04:30;;;;;;;1.00;0.10;;;;;;;5.10;79.15;99501.00;5064945;28;20552;-70
2022/12/29 11:06:58;;;;;;;0.35;0.28;;;;;;;5.13;79.28;99497.50;5062597;28;20054;-70
2022/12/29 11:09:29;;;;;;;0.10;0.10;;;;;;;5.14;79.23;99481.94;5060913;28;20044;-70
2022/12/29 11:11:58;;;;;;;1.42;0.30;;;;;;;5.15;79.46;99481.06;5063115;28;20051;-70
2022/12/29 11:14:30;;;;;;;0.38;0.13;;;;;;;5.14;79.51;99479.34;5061271;28;20503;-70
2022/12/29 11:17:02;;;;;;;0.30;0.20;;;;;;;5.15;79.38;99478.47;5061738;28;20075;-70
2022/12/29 11:19:30;;;;;;;1.10;0.20;;;;;;;5.15;79.40;99467.25;5057763;28;20049;-71
2022/12/29 11:22:14;;;;;;;0.20;0.10;;;;;;;5.18;79.23;99467.22;5059376;28;20490;-70
2022/12/29 11:24:45;;;;;;;0.30;0.10;;;;;;;5.23;79.46;99467.13;5061499;28;20051;-70
2022/12/29 11:27:17;;;;;;;0.90;0.20;;;;;;;5.23;79.46;99467.13;5060446;28;20045;-70
2022/12/29 11:29:46;;;;;;;0.20;0.10;;;;;;;5.24;79.43;99467.09;5057258;28;20095;-70
2022/12/29 11:32:18;;;;;;;0.25;0.20;;;;;;;5.26;79.42;99456.72;5062180;28;20125;-70
2022/12/29 11:34:46;;;;;;;1.33;0.15;;;;;;;5.27;79.70;99448.06;5062565;28;20040;-70
2022/12/29 11:37:15;;;;;;;0.47;0.20;;;;;;;5.29;79.30;99459.25;5064452;28;20037;-70
2022/12/29 11:39:48;;;;;;;0.22;0.20;;;;;;;5.29;79.43;99454.91;5060980;28;20114;-70
2022/12/29 11:42:19;;;;;;;0.32;0.10;;;;;;;5.31;79.48;99452.31;5061429;28;20044;-70
2022/12/29 11:44:48;;;;;;;0.30;0.10;;;;;;;5.32;79.38;99446.22;5061335;28;20060;-70
2022/12/29 11:47:27;;;;;;;0.32;0.10;;;;;;;5.33;79.29;99440.19;5066645;28;20127;-71
2022/12/29 11:49:57;;;;;;;0.40;0.20;;;;;;;5.33;79.22;99438.44;5060986;28;20051;-70
2022/12/29 11:52:26;;;;;;;0.10;0.10;;;;;;;5.34;79.19;99426.34;5060348;28;20058;-70
2022/12/29 11:54:56;;;;;;;0.32;0.20;;;;;;;5.32;79.30;99426.41;5065225;28;20067;-70
2022/12/29 11:57:25;;;;;;;0.20;0.20;;;;;;;5.36;79.14;99420.25;5062683;28;20045;-70
2022/12/29 11:59:55;;;;;;;0.43;0.20;;;;;;;5.33;79.43;99411.72;5062741;28;20135;-70
2022/12/29 12:02:36;;;;;;;0.20;0.15;;;;;;;5.39;79.33;99409.00;5062749;28;20044;-70
2022/12/29 12:05:11;;;;;;;1.73;0.20;;;;;;;5.34;79.28;99395.28;5066676;28;20067;-70
2022/12/29 12:07:42;;;;;;;1.67;0.17;;;;;;;5.39;79.38;99393.47;5062271;28;20041;-70
2022/12/29 12:10:17;;;;;;;0.52;0.10;;;;;;;5.41;79.24;99395.16;5060873;28;20052;-70
2022/12/29 12:12:49;;;;;;;;;;;;;;;5.41;79.20;99387.38;5063825;28;20049;-70
2022/12/29 12:15:21;;;;;;;0.15;0.15;;;;;;;5.40;79.42;99387.38;5062367;28;19921;-71
2022/12/29 12:17:52;;;;;;;0.10;0.10;;;;;;;5.43;79.14;99381.31;5065383;28;20064;-70
2022/12/29 12:20:22;;;;;;;1.33;0.20;;;;;;;5.43;79.03;99384.72;5065108;28;20059;-70
2022/12/29 12:23:00;;;;;;;0.57;0.10;;;;;;;5.35;79.09;99355.53;5062648;28;20770;-70
2022/12/29 12:25:36;;;;;;;0.52;0.15;;;;;;;5.45;79.25;99366.59;5064545;28;20045;-70